Terminal Aerodrome Forecast
Issued by NWS

Home | Current Version | Previous Version | Text Only | Print | Product List | Glossary On
Versions: 1 2 3 4 5 6 7 8 9 10 11 12 13 14 15 16 17 18 19 20 21 22 23
111
FTUS43 KGRB 240812 AAA
TAFCWA
TAF AMD
KCWA 240812Z 2408/2506 30004KT 3SM BR OVC004
      TEMPO 2409/2413 3/4SM BR BKN002
     FM241400 34003KT 3SM BR OVC004
     FM241700 06004KT P6SM BKN015
      TEMPO 2502/2506 3SM -SN BKN006
      AMD LTD TO CLD VIS AND WIND TIL 241100=

USA.gov is the U.S. government's official web portal to all federal, state and local government web resources and services.